createdAt,value
2022-12-11T00:03:16.419Z,358.51
2022-12-11T00:08:15.754Z,355.44
2022-12-11T00:13:15.578Z,356.20
2022-12-11T00:18:15.542Z,355.82
2022-12-11T00:23:15.466Z,355.06
2022-12-11T00:28:15.390Z,356.20
2022-12-11T00:33:15.337Z,356.20
2022-12-11T00:38:15.263Z,355.06
2022-12-11T00:43:15.213Z,356.20
2022-12-11T00:48:15.142Z,355.82
2022-12-11T00:53:15.072Z,356.20
2022-12-11T00:58:14.999Z,354.68
2022-12-11T01:03:14.976Z,353.55
2022-12-11T01:08:39.424Z,352.42
2022-12-11T01:13:31.806Z,352.42
2022-12-11T01:18:31.790Z,353.17
2022-12-11T01:23:31.730Z,354.30
2022-12-11T01:28:31.622Z,353.92
2022-12-11T01:33:31.587Z,353.17
2022-12-11T01:38:31.517Z,355.44
2022-12-11T01:43:31.457Z,353.55
2022-12-11T01:48:31.383Z,353.92
2022-12-11T01:53:31.356Z,352.79
2022-12-11T01:58:31.258Z,353.92
2022-12-11T02:03:31.205Z,352.42
2022-12-11T02:08:31.176Z,352.79
2022-12-11T02:13:31.086Z,355.06
2022-12-11T02:18:31.020Z,352.79
2022-12-11T02:23:30.967Z,353.17
2022-12-11T02:28:30.859Z,355.06
2022-12-11T02:33:30.837Z,351.67
2022-12-11T02:38:30.777Z,353.17
2022-12-11T02:43:30.678Z,353.55
2022-12-11T02:48:30.618Z,353.17
2022-12-11T02:53:30.574Z,352.05
2022-12-11T02:58:30.506Z,353.92
2022-12-11T03:03:30.453Z,354.68
2022-12-11T03:08:30.461Z,353.55
2022-12-11T03:13:30.317Z,353.55
2022-12-11T03:18:30.245Z,352.79
2022-12-11T03:23:30.180Z,352.79
2022-12-11T03:28:30.118Z,352.05
2022-12-11T03:33:30.083Z,351.30
2022-12-11T03:38:29.977Z,351.67
2022-12-11T03:43:29.924Z,355.44
2022-12-11T03:48:29.855Z,352.42
2022-12-11T03:53:29.806Z,352.42
2022-12-11T03:58:29.726Z,352.42
2022-12-11T04:03:29.655Z,352.79
2022-12-11T04:08:29.623Z,351.67
2022-12-11T04:13:29.549Z,352.42
2022-12-11T04:18:29.488Z,350.56
2022-12-11T04:23:29.424Z,351.67
2022-12-11T04:28:29.342Z,353.17
2022-12-11T04:33:29.298Z,352.05
2022-12-11T04:38:29.219Z,351.67
2022-12-11T04:43:29.167Z,348.71
2022-12-11T04:48:29.066Z,351.67
2022-12-11T04:53:29.054Z,352.05
2022-12-11T04:58:28.985Z,351.30
2022-12-11T05:03:28.887Z,351.30
2022-12-11T05:08:28.831Z,352.42
2022-12-11T05:13:28.786Z,352.05
2022-12-11T05:18:28.706Z,351.30
2022-12-11T05:23:28.670Z,350.19
2022-12-11T05:28:28.581Z,350.56
2022-12-11T05:33:28.521Z,351.67
2022-12-11T05:38:28.446Z,352.05
2022-12-11T05:43:28.393Z,352.05
2022-12-11T05:48:28.315Z,353.17
2022-12-11T05:53:28.264Z,350.19
2022-12-11T05:58:28.187Z,350.19
2022-12-11T06:03:28.137Z,350.93
2022-12-11T06:08:28.078Z,351.67
2022-12-11T06:13:28.012Z,350.56
2022-12-11T06:18:27.933Z,352.05
2022-12-11T06:23:27.884Z,350.93
2022-12-11T06:28:27.786Z,350.19
2022-12-11T06:33:27.746Z,353.17
2022-12-11T06:38:27.692Z,353.55
2022-12-11T06:43:27.627Z,351.67
2022-12-11T06:48:27.555Z,351.67
2022-12-11T06:53:27.502Z,351.67
2022-12-11T06:58:27.438Z,352.42
2022-12-11T07:03:38.294Z,353.92
2022-12-11T07:08:30.693Z,350.93
2022-12-11T07:13:30.606Z,352.42
2022-12-11T07:18:30.578Z,352.42
2022-12-11T07:23:30.482Z,352.79
2022-12-11T07:28:30.431Z,353.17
2022-12-11T07:33:30.367Z,352.42
2022-12-11T07:38:30.307Z,352.79
2022-12-11T07:43:30.224Z,350.93
2022-12-11T07:48:30.144Z,351.67
2022-12-11T07:53:30.094Z,350.93
2022-12-11T07:58:30.048Z,350.56
2022-12-11T08:03:29.953Z,349.08
2022-12-11T08:08:29.924Z,350.19
2022-12-11T08:13:29.843Z,349.08
2022-12-11T08:18:29.799Z,347.62
2022-12-11T08:23:29.705Z,347.62
2022-12-11T08:28:29.708Z,344.37
2022-12-11T08:33:29.595Z,343.66
2022-12-11T08:38:29.542Z,344.01
2022-12-11T08:43:29.455Z,345.09
2022-12-11T08:48:29.422Z,344.37
2022-12-11T08:53:29.333Z,344.73
2022-12-11T08:58:29.264Z,342.95
2022-12-11T09:03:29.214Z,342.59
2022-12-11T09:08:29.259Z,345.09
2022-12-11T09:13:29.057Z,341.54
2022-12-11T09:18:29.035Z,340.83
2022-12-11T09:23:28.954Z,340.14
2022-12-11T09:28:28.905Z,339.79
2022-12-11T09:33:28.820Z,342.59
2022-12-11T09:38:28.764Z,340.83
2022-12-11T09:43:28.687Z,339.44
2022-12-11T09:48:28.653Z,338.75
2022-12-11T09:53:33.768Z,337.71
2022-12-11T09:58:29.529Z,337.37
2022-12-11T10:03:28.454Z,336.34
2022-12-11T10:08:28.405Z,333.97
2022-12-11T10:13:28.288Z,332.63
2022-12-11T10:18:28.278Z,332.30
2022-12-11T10:23:28.183Z,332.97
2022-12-11T10:28:28.143Z,331.97
2022-12-11T10:33:28.066Z,329.01
2022-12-11T10:38:27.985Z,327.71
2022-12-11T10:43:27.918Z,328.68
2022-12-11T10:48:27.868Z,327.71
2022-12-11T10:53:27.786Z,325.46
2022-12-11T10:58:27.745Z,326.42
2022-12-11T11:03:27.688Z,325.14
2022-12-11T11:08:27.683Z,323.55
2022-12-11T11:13:27.537Z,324.18
2022-12-11T11:18:27.497Z,323.87
2022-12-11T11:23:27.408Z,322.92
2022-12-11T11:28:27.364Z,322.92
2022-12-11T11:33:27.300Z,322.29
2022-12-11T11:38:27.241Z,321.05
2022-12-11T11:43:27.157Z,320.12
2022-12-11T11:48:27.099Z,319.50
2022-12-11T11:53:27.009Z,316.76
2022-12-11T11:58:26.997Z,317.97
2022-12-11T12:03:26.923Z,317.67
2022-12-11T12:08:26.899Z,317.67
2022-12-11T12:13:48.510Z,316.76
2022-12-11T12:18:27.719Z,318.27
2022-12-11T12:23:27.969Z,319.81
2022-12-11T12:28:26.605Z,320.43
2022-12-11T12:33:26.524Z,319.50
2022-12-11T12:38:26.471Z,320.12
2022-12-11T12:43:26.388Z,320.12
2022-12-11T12:48:26.344Z,319.81
2022-12-11T12:53:26.239Z,322.29
2022-12-11T12:58:26.219Z,319.81
2022-12-11T13:03:26.141Z,320.74
2022-12-11T13:08:26.119Z,322.29
2022-12-11T13:13:25.992Z,322.61
2022-12-11T13:18:25.966Z,323.87
2022-12-11T13:23:25.888Z,324.18
2022-12-11T13:28:25.813Z,326.74
2022-12-11T13:33:25.762Z,328.68
2022-12-11T13:38:25.693Z,323.55
2022-12-11T13:43:25.624Z,321.98
2022-12-11T13:48:25.555Z,324.82
2022-12-11T13:53:25.491Z,325.46
2022-12-11T13:58:25.421Z,322.29
2022-12-11T14:03:25.354Z,324.50
2022-12-11T14:08:25.332Z,321.98
2022-12-11T14:13:25.228Z,321.05
2022-12-11T14:18:25.172Z,321.36
2022-12-11T14:23:25.102Z,322.29
2022-12-11T14:28:25.073Z,321.05
2022-12-11T14:33:24.952Z,321.67
2022-12-11T14:38:24.933Z,324.18
2022-12-11T14:43:24.845Z,322.92
2022-12-11T14:48:24.790Z,324.18
2022-12-11T14:53:24.734Z,324.82
2022-12-11T14:58:24.675Z,326.74
2022-12-11T15:03:24.592Z,325.14
2022-12-11T15:08:24.827Z,328.35
2022-12-11T15:13:24.455Z,329.33
2022-12-11T15:18:24.398Z,328.68
2022-12-11T15:23:24.330Z,328.35
2022-12-11T15:28:24.300Z,332.63
2022-12-11T15:33:24.202Z,333.64
2022-12-11T15:38:24.137Z,332.30
2022-12-11T15:43:24.082Z,330.64
2022-12-11T15:48:24.031Z,331.30
2022-12-11T15:53:23.980Z,331.30
2022-12-11T15:58:23.905Z,329.99
2022-12-11T16:03:23.823Z,332.30
2022-12-11T16:08:23.846Z,335.32
2022-12-11T16:13:23.694Z,332.63
2022-12-11T16:18:23.672Z,333.97
2022-12-11T16:23:23.572Z,332.30
2022-12-11T16:28:23.517Z,329.99
2022-12-11T16:33:23.453Z,329.99
2022-12-11T16:38:23.486Z,331.30
2022-12-11T16:43:23.304Z,328.68
2022-12-11T16:48:23.263Z,329.33
2022-12-11T16:53:23.165Z,329.66
2022-12-11T16:58:23.102Z,328.35
2022-12-11T17:03:23.062Z,327.06
2022-12-11T17:08:23.094Z,328.35
2022-12-11T17:13:22.897Z,328.03
2022-12-11T17:18:22.903Z,329.33
2022-12-11T17:23:22.843Z,330.97
2022-12-11T17:28:22.748Z,331.30
2022-12-11T17:33:22.661Z,331.30
2022-12-11T17:38:22.644Z,331.30
2022-12-11T17:43:22.532Z,331.30
2022-12-11T17:48:22.538Z,330.64
2022-12-11T17:53:22.411Z,331.97
2022-12-11T17:58:22.335Z,332.97
2022-12-11T18:03:22.354Z,330.32
2022-12-11T18:08:22.297Z,330.64
2022-12-11T18:13:22.156Z,331.97
2022-12-11T18:18:22.117Z,332.97
2022-12-11T18:23:21.999Z,332.30
2022-12-11T18:28:22.054Z,332.63
2022-12-11T18:33:21.902Z,332.63
2022-12-11T18:38:21.855Z,333.30
2022-12-11T18:43:21.776Z,331.97
2022-12-11T18:48:21.738Z,332.63
2022-12-11T18:53:21.660Z,332.63
2022-12-11T18:58:21.607Z,331.30
2022-12-11T19:03:21.519Z,329.66
2022-12-11T19:08:21.610Z,328.35
2022-12-11T19:13:21.392Z,329.66
2022-12-11T19:18:21.343Z,329.66
2022-12-11T19:23:21.261Z,329.66
2022-12-11T19:28:21.227Z,330.64
2022-12-11T19:33:21.138Z,333.30
2022-12-11T19:38:21.093Z,330.97
2022-12-11T19:43:21.020Z,332.30
2022-12-11T19:48:20.966Z,329.99
2022-12-11T19:53:20.894Z,330.97
2022-12-11T19:58:20.872Z,329.99
2022-12-11T20:03:20.784Z,332.63
2022-12-11T20:08:43.679Z,329.99
2022-12-11T20:13:21.616Z,331.64
2022-12-11T20:18:20.644Z,331.64
2022-12-11T20:23:20.498Z,330.32
2022-12-11T20:28:20.497Z,332.97
2022-12-11T20:33:20.380Z,333.97
2022-12-11T20:38:20.322Z,332.63
2022-12-11T20:43:20.257Z,334.98
2022-12-11T20:48:20.213Z,335.32
2022-12-11T20:53:20.107Z,333.97
2022-12-11T20:58:20.066Z,335.32
2022-12-11T21:03:19.980Z,339.44
2022-12-11T21:08:20.046Z,334.65
2022-12-11T21:13:19.844Z,334.31
2022-12-11T21:18:19.820Z,333.30
2022-12-11T21:23:19.744Z,334.98
2022-12-11T21:28:19.669Z,334.65
2022-12-11T21:33:19.618Z,336.00
2022-12-11T21:38:19.555Z,333.97
2022-12-11T21:43:19.481Z,336.34
2022-12-11T21:48:19.478Z,333.30
2022-12-11T21:53:19.348Z,331.97
2022-12-11T21:58:19.300Z,331.30
2022-12-11T22:03:19.231Z,332.63
2022-12-11T22:08:19.221Z,331.97
2022-12-11T22:13:19.083Z,331.30
2022-12-11T22:18:19.044Z,334.31
2022-12-11T22:23:18.966Z,335.32
2022-12-11T22:28:18.903Z,333.97
2022-12-11T22:33:18.847Z,336.34
2022-12-11T22:38:18.762Z,332.63
2022-12-11T22:43:18.718Z,334.65
2022-12-11T22:48:18.638Z,336.34
2022-12-11T22:53:18.582Z,334.31
2022-12-11T22:58:21.742Z,334.98
2022-12-11T23:03:18.508Z,331.64
2022-12-11T23:08:18.494Z,332.30
2022-12-11T23:13:18.348Z,331.64
2022-12-11T23:18:18.478Z,335.32
2022-12-11T23:23:18.211Z,332.63
2022-12-11T23:28:18.130Z,330.64
2022-12-11T23:33:18.071Z,332.63
2022-12-11T23:38:18.004Z,333.97
2022-12-11T23:43:17.968Z,334.31
2022-12-11T23:48:17.847Z,334.31
2022-12-11T23:53:17.817Z,335.66
2022-12-11T23:58:17.758Z,337.71
